createdAt,value
2022-07-31T00:01:36.818Z,2.70
2022-07-31T00:04:38.893Z,3.50
2022-07-31T00:07:41.040Z,2.90
2022-07-31T00:10:43.099Z,2.70
2022-07-31T00:13:58.173Z,3.00
2022-07-31T00:17:00.872Z,2.25
2022-07-31T00:20:03.685Z,2.05
2022-07-31T00:23:05.759Z,2.22
2022-07-31T00:26:07.962Z,2.53
2022-07-31T00:29:10.945Z,4.45
2022-07-31T00:32:18.118Z,3.10
2022-07-31T00:35:20.413Z,2.42
2022-07-31T00:38:26.863Z,2.70
2022-07-31T00:41:44.387Z,7.03
2022-07-31T00:44:47.780Z,3.50
2022-07-31T00:47:50.170Z,4.82
2022-07-31T00:50:58.142Z,14.93
2022-07-31T00:54:00.230Z,18.45
2022-07-31T00:57:03.251Z,70.38
2022-07-31T01:00:06.648Z,30.55
2022-07-31T01:03:08.752Z,42.60
2022-07-31T01:06:10.844Z,36.22
2022-07-31T01:09:14.712Z,21.92
2022-07-31T01:13:08.579Z,41.97
2022-07-31T01:16:10.782Z,22.48
2022-07-31T01:19:43.148Z,20.73
2022-07-31T01:23:27.692Z,14.73
2022-07-31T01:26:59.853Z,56.35
2022-07-31T01:30:06.067Z,42.30
2022-07-31T01:33:15.238Z,49.95
2022-07-31T01:36:25.099Z,83.85
2022-07-31T01:39:33.755Z,61.33
2022-07-31T01:42:37.907Z,34.53
2022-07-31T01:45:41.376Z,28.42
2022-07-31T01:48:44.752Z,19.70
2022-07-31T01:51:46.912Z,36.65
2022-07-31T01:54:49.167Z,16.25
2022-07-31T01:57:51.251Z,31.08
2022-07-31T02:00:56.785Z,20.75
2022-07-31T02:04:00.594Z,21.40
2022-07-31T02:07:05.481Z,18.25
2022-07-31T02:10:11.407Z,26.23
2022-07-31T02:13:14.167Z,13.68
2022-07-31T02:16:18.076Z,18.73
2022-07-31T02:19:21.003Z,12.52
2022-07-31T02:22:26.651Z,17.48
2022-07-31T02:25:29.585Z,27.38
2022-07-31T02:28:32.014Z,4.75
2022-07-31T02:31:34.399Z,32.17
2022-07-31T02:34:36.552Z,3.13
2022-07-31T02:37:38.828Z,2.53
2022-07-31T02:40:42.359Z,2.38
2022-07-31T02:43:45.492Z,8.98
2022-07-31T02:46:59.589Z,5.30
2022-07-31T02:50:02.374Z,1.10
2022-07-31T02:53:04.509Z,5.00
2022-07-31T02:56:06.673Z,0.70
2022-07-31T02:59:10.558Z,0.60
2022-07-31T03:02:34.564Z,1.20
2022-07-31T03:05:40.437Z,1.25
2022-07-31T03:08:42.578Z,0.40
2022-07-31T03:11:45.369Z,0.20
2022-07-31T03:14:47.738Z,0.35
2022-07-31T03:17:50.052Z,0.10
2022-07-31T03:20:58.072Z,0.60
2022-07-31T03:24:00.228Z,1.42
2022-07-31T03:27:02.415Z,0.15
2022-07-31T03:30:06.726Z,0.52
2022-07-31T03:33:08.805Z,0.68
2022-07-31T03:36:13.214Z,1.40
2022-07-31T03:39:16.385Z,0.25
2022-07-31T03:42:21.190Z,0.20
2022-07-31T03:45:23.338Z,0.10
2022-07-31T03:48:26.790Z,0.20
2022-07-31T03:51:32.114Z,0.30
2022-07-31T03:54:34.587Z,0.20
2022-07-31T03:57:53.445Z,0.65
2022-07-31T04:00:56.411Z,0.50
2022-07-31T04:03:59.624Z,0.50
2022-07-31T04:07:14.652Z,0.17
2022-07-31T04:10:16.985Z,1.08
2022-07-31T04:13:19.128Z,1.23
2022-07-31T04:16:21.363Z,1.60
2022-07-31T04:19:23.439Z,2.17
2022-07-31T04:22:25.630Z,3.15
2022-07-31T04:25:28.369Z,3.38
2022-07-31T04:28:43.967Z,2.17
2022-07-31T04:31:46.058Z,2.75
2022-07-31T04:34:55.972Z,1.38
2022-07-31T04:37:58.075Z,2.03
2022-07-31T04:41:00.998Z,2.17
2022-07-31T04:44:03.147Z,1.88
2022-07-31T04:47:17.684Z,2.67
2022-07-31T04:50:23.742Z,0.80
2022-07-31T04:53:33.292Z,1.25
2022-07-31T05:00:00.541Z,1.90
2022-07-31T05:03:06.723Z,1.85
2022-07-31T05:06:12.635Z,1.77
2022-07-31T05:09:19.097Z,1.90
2022-07-31T05:15:24.132Z,3.10
2022-07-31T05:18:26.370Z,2.38
2022-07-31T05:21:53.096Z,2.08
2022-07-31T05:24:56.724Z,4.68
2022-07-31T05:27:59.676Z,2.83
2022-07-31T05:31:01.830Z,4.05
2022-07-31T05:34:03.986Z,2.50
2022-07-31T05:37:06.096Z,2.80
2022-07-31T05:40:11.950Z,5.63
2022-07-31T05:43:32.915Z,3.80
2022-07-31T05:46:39.278Z,2.95
2022-07-31T05:49:41.421Z,3.40
2022-07-31T05:52:43.628Z,3.10
2022-07-31T05:56:16.119Z,2.88
2022-07-31T06:02:26.897Z,3.05
2022-07-31T06:05:43.980Z,3.97
2022-07-31T06:08:46.187Z,3.78
2022-07-31T06:11:48.447Z,2.60
2022-07-31T06:14:50.687Z,3.00
2022-07-31T06:18:00.254Z,2.25
2022-07-31T06:21:04.139Z,2.40
2022-07-31T06:24:07.249Z,2.10
2022-07-31T06:27:26.085Z,2.20
2022-07-31T06:30:36.482Z,1.90
2022-07-31T06:33:38.627Z,2.30
2022-07-31T06:36:40.846Z,2.28
2022-07-31T06:39:56.079Z,1.33
2022-07-31T06:43:13.819Z,2.33
2022-07-31T06:46:34.492Z,1.90
2022-07-31T06:50:08.998Z,2.22
2022-07-31T06:53:14.030Z,1.92
2022-07-31T06:56:16.441Z,3.05
2022-07-31T06:59:40.354Z,2.65
2022-07-31T07:02:41.044Z,2.72
2022-07-31T07:05:45.484Z,3.72
2022-07-31T07:08:49.124Z,1.90
2022-07-31T07:11:54.987Z,2.22
2022-07-31T07:14:58.174Z,2.40
2022-07-31T07:18:00.310Z,1.85
2022-07-31T07:21:19.395Z,1.45
2022-07-31T07:24:21.736Z,1.83
2022-07-31T07:27:38.813Z,1.13
2022-07-31T07:30:40.990Z,1.02
2022-07-31T07:33:43.813Z,1.30
2022-07-31T07:36:50.432Z,0.57
2022-07-31T07:40:03.899Z,1.15
2022-07-31T07:43:06.255Z,0.80
2022-07-31T07:46:08.452Z,1.40
2022-07-31T07:49:13.789Z,2.97
2022-07-31T07:52:43.789Z,1.83
2022-07-31T07:56:15.592Z,1.25
2022-07-31T07:59:49.691Z,1.45
2022-07-31T08:03:48.167Z,1.23
2022-07-31T08:06:40.442Z,1.48
2022-07-31T08:09:42.663Z,1.10
2022-07-31T08:13:08.694Z,1.13
2022-07-31T08:16:28.981Z,1.38
2022-07-31T08:19:34.182Z,1.02
2022-07-31T08:22:36.804Z,0.98
2022-07-31T08:25:38.927Z,1.25
2022-07-31T08:28:50.412Z,1.08
2022-07-31T08:31:55.628Z,1.55
2022-07-31T08:35:23.544Z,1.20
2022-07-31T08:38:25.837Z,1.88
2022-07-31T08:41:53.689Z,1.85
2022-07-31T08:44:57.439Z,2.45
2022-07-31T08:48:04.319Z,2.50
2022-07-31T08:51:13.765Z,2.60
2022-07-31T08:54:38.852Z,1.95
2022-07-31T08:57:41.497Z,2.33
2022-07-31T09:00:43.641Z,2.60
2022-07-31T09:03:45.805Z,2.17
2022-07-31T09:06:50.607Z,3.00
2022-07-31T09:09:52.823Z,2.65
2022-07-31T09:12:57.138Z,3.15
2022-07-31T09:16:01.928Z,3.28
2022-07-31T09:19:52.199Z,3.42
2022-07-31T09:22:30.405Z,2.92
2022-07-31T09:25:34.898Z,5.28
2022-07-31T09:28:43.616Z,2.85
2022-07-31T09:31:45.693Z,2.97
2022-07-31T09:35:13.089Z,2.65
2022-07-31T09:38:16.691Z,4.80
2022-07-31T09:42:01.194Z,3.15
2022-07-31T09:45:30.467Z,4.13
2022-07-31T09:48:33.859Z,2.97
2022-07-31T09:51:41.862Z,5.47
2022-07-31T09:54:45.315Z,4.78
2022-07-31T09:58:05.474Z,3.90
2022-07-31T10:01:14.552Z,3.63
2022-07-31T10:04:22.652Z,3.30
2022-07-31T10:07:32.771Z,4.18
2022-07-31T10:10:53.259Z,3.67
2022-07-31T10:14:02.564Z,3.25
2022-07-31T10:17:05.389Z,3.42
2022-07-31T10:20:08.831Z,3.72
2022-07-31T10:23:25.417Z,3.28
2022-07-31T10:26:50.636Z,3.42
2022-07-31T10:29:50.934Z,2.72
2022-07-31T10:32:53.217Z,3.55
2022-07-31T10:36:22.459Z,3.67
2022-07-31T10:40:22.249Z,3.25
2022-07-31T10:43:45.175Z,3.42
2022-07-31T10:47:27.273Z,4.63
2022-07-31T10:50:45.540Z,3.92
2022-07-31T10:54:01.023Z,3.30
2022-07-31T10:57:33.719Z,3.47
2022-07-31T11:01:06.847Z,3.60
2022-07-31T11:04:26.078Z,4.70
2022-07-31T11:07:47.131Z,3.42
2022-07-31T11:14:19.130Z,4.47
2022-07-31T11:18:22.568Z,4.45
2022-07-31T11:21:17.411Z,5.18
2022-07-31T11:24:24.214Z,5.15
2022-07-31T11:27:33.130Z,4.35
2022-07-31T11:30:35.874Z,3.33
2022-07-31T11:33:43.858Z,4.43
2022-07-31T11:36:50.745Z,5.10
2022-07-31T11:39:55.029Z,4.70
2022-07-31T11:43:25.380Z,4.75
2022-07-31T11:46:32.225Z,7.00
2022-07-31T11:49:48.097Z,4.50
2022-07-31T11:53:01.464Z,6.95
2022-07-31T11:56:04.124Z,7.15
2022-07-31T11:59:06.195Z,6.13
2022-07-31T12:02:13.216Z,6.18
2022-07-31T12:05:15.360Z,4.95
2022-07-31T12:08:17.504Z,6.03
2022-07-31T12:11:20.099Z,4.40
2022-07-31T12:14:33.051Z,6.22
2022-07-31T12:17:35.172Z,4.57
2022-07-31T12:20:37.390Z,6.35
2022-07-31T12:23:52.706Z,3.80
2022-07-31T12:26:59.156Z,6.72
2022-07-31T12:30:01.275Z,3.78
2022-07-31T12:33:10.851Z,4.97
2022-07-31T12:36:14.679Z,6.43
2022-07-31T12:39:16.755Z,4.05
2022-07-31T12:42:40.638Z,4.00
2022-07-31T12:45:44.990Z,4.57
2022-07-31T12:48:47.117Z,4.28
2022-07-31T12:51:49.271Z,4.38
2022-07-31T12:54:51.395Z,3.35
2022-07-31T12:57:53.582Z,4.43
2022-07-31T13:00:57.137Z,3.00
2022-07-31T13:03:59.220Z,3.65
2022-07-31T13:07:02.207Z,4.28
2022-07-31T13:10:20.864Z,3.30
2022-07-31T13:13:25.611Z,5.32
2022-07-31T13:16:27.786Z,3.70
2022-07-31T13:19:31.296Z,3.13
2022-07-31T13:22:33.444Z,3.50
2022-07-31T13:25:35.536Z,3.72
2022-07-31T13:28:37.671Z,4.85
2022-07-31T13:31:39.931Z,4.45
2022-07-31T13:34:42.050Z,4.70
2022-07-31T13:37:44.180Z,5.80
2022-07-31T13:41:04.778Z,4.90
2022-07-31T13:44:07.329Z,4.03
2022-07-31T13:47:09.452Z,5.18
2022-07-31T13:50:11.542Z,5.00
2022-07-31T13:53:13.610Z,4.97
2022-07-31T13:56:42.308Z,6.68
2022-07-31T13:59:39.188Z,6.13
2022-07-31T14:02:44.523Z,4.70
2022-07-31T14:05:46.623Z,5.30
2022-07-31T14:08:51.010Z,4.47
2022-07-31T14:11:53.142Z,5.90
2022-07-31T14:14:58.272Z,5.70
2022-07-31T14:18:02.419Z,5.32
2022-07-31T14:21:08.168Z,3.92
2022-07-31T14:24:10.218Z,4.00
2022-07-31T14:27:12.531Z,5.75
2022-07-31T14:30:19.801Z,4.68
2022-07-31T14:33:22.282Z,9.15
2022-07-31T14:36:24.358Z,4.10
2022-07-31T14:39:26.434Z,5.38
2022-07-31T14:42:28.523Z,5.45
2022-07-31T14:45:30.814Z,6.15
2022-07-31T14:48:33.211Z,6.55
2022-07-31T14:51:35.273Z,6.13
2022-07-31T14:54:37.404Z,5.93
2022-07-31T14:57:39.548Z,4.70
2022-07-31T15:00:41.686Z,5.63
2022-07-31T15:03:43.763Z,8.07
2022-07-31T15:06:56.194Z,6.93
2022-07-31T15:10:05.555Z,7.15
2022-07-31T15:13:07.703Z,5.43
2022-07-31T15:16:09.846Z,5.60
2022-07-31T15:19:12.098Z,4.78
2022-07-31T15:22:17.515Z,4.57
2022-07-31T15:25:19.663Z,4.93
2022-07-31T15:28:21.775Z,5.68
2022-07-31T15:31:24.655Z,6.80
2022-07-31T15:34:26.744Z,6.28
2022-07-31T15:37:28.828Z,4.60
2022-07-31T15:40:31.179Z,4.10
2022-07-31T15:43:35.335Z,6.45
2022-07-31T15:46:37.440Z,4.72
2022-07-31T15:49:43.832Z,6.13
2022-07-31T15:52:47.826Z,5.57
2022-07-31T15:55:49.927Z,5.18
2022-07-31T15:58:53.893Z,5.65
2022-07-31T16:01:56.104Z,7.20
2022-07-31T16:05:02.335Z,7.32
2022-07-31T16:08:31.906Z,5.13
2022-07-31T16:12:05.536Z,5.30
2022-07-31T16:14:58.806Z,4.75
2022-07-31T16:18:01.528Z,4.53
2022-07-31T16:21:03.731Z,6.40
2022-07-31T16:24:06.120Z,4.88
2022-07-31T16:27:08.571Z,5.90
2022-07-31T16:30:13.212Z,6.18
2022-07-31T16:33:15.282Z,5.55
2022-07-31T16:36:18.982Z,4.10
2022-07-31T16:39:22.383Z,5.03
2022-07-31T16:42:25.166Z,5.53
2022-07-31T16:45:27.266Z,5.00
2022-07-31T16:48:29.650Z,5.43
2022-07-31T16:51:31.715Z,4.18
2022-07-31T16:54:33.927Z,5.18
2022-07-31T16:57:36.010Z,5.22
2022-07-31T17:00:39.185Z,7.53
2022-07-31T17:04:01.330Z,4.72
2022-07-31T17:07:03.955Z,5.53
2022-07-31T17:10:07.028Z,5.00
2022-07-31T17:13:09.123Z,3.35
2022-07-31T17:16:11.263Z,6.47
2022-07-31T17:19:13.411Z,7.00
2022-07-31T17:22:17.466Z,4.18
2022-07-31T17:25:20.983Z,6.13
2022-07-31T17:28:23.063Z,6.72
2022-07-31T17:31:25.141Z,5.78
2022-07-31T17:34:27.250Z,5.53
2022-07-31T17:37:29.327Z,5.78
2022-07-31T17:40:43.586Z,4.93
2022-07-31T17:43:50.367Z,6.78
2022-07-31T17:46:54.965Z,3.85
2022-07-31T17:49:57.467Z,4.38
2022-07-31T17:52:59.610Z,5.90
2022-07-31T17:56:01.712Z,5.68
2022-07-31T17:59:05.578Z,6.30
2022-07-31T18:02:07.911Z,5.75
2022-07-31T18:05:10.312Z,5.70
2022-07-31T18:08:12.410Z,4.60
2022-07-31T18:11:14.560Z,4.25
2022-07-31T18:14:20.854Z,6.13
2022-07-31T18:17:28.472Z,5.13
2022-07-31T18:20:30.632Z,8.00
2022-07-31T18:23:32.856Z,7.05
2022-07-31T18:26:38.180Z,9.13
2022-07-31T18:29:40.363Z,5.93
2022-07-31T18:32:44.122Z,3.38
2022-07-31T18:35:46.358Z,4.15
2022-07-31T18:38:48.779Z,5.53
2022-07-31T18:41:51.119Z,4.22
2022-07-31T18:44:53.306Z,3.28
2022-07-31T18:47:55.515Z,9.55
2022-07-31T18:51:04.387Z,11.18
2022-07-31T18:54:06.806Z,4.05
2022-07-31T18:57:08.952Z,6.47
2022-07-31T19:00:11.718Z,4.47
2022-07-31T19:03:13.846Z,4.90
2022-07-31T19:06:16.264Z,5.13
2022-07-31T19:09:19.708Z,10.25
2022-07-31T19:12:21.962Z,4.38
2022-07-31T19:15:24.027Z,8.48
2022-07-31T19:18:28.838Z,5.53
2022-07-31T19:21:41.590Z,6.35
2022-07-31T19:24:44.928Z,5.90
2022-07-31T19:27:50.205Z,6.80
2022-07-31T19:30:53.243Z,8.45
2022-07-31T19:33:55.343Z,6.00
2022-07-31T19:36:57.424Z,5.35
2022-07-31T19:39:59.611Z,4.90
2022-07-31T19:43:02.313Z,4.90
2022-07-31T19:46:11.519Z,8.07
2022-07-31T19:49:14.938Z,5.85
2022-07-31T19:52:17.058Z,7.47
2022-07-31T19:55:19.160Z,6.50
2022-07-31T19:58:21.700Z,5.22
2022-07-31T20:01:23.786Z,6.20
2022-07-31T20:04:25.917Z,4.30
2022-07-31T20:07:32.516Z,7.47
2022-07-31T20:10:34.987Z,4.55
2022-07-31T20:13:38.669Z,6.45
2022-07-31T20:16:41.001Z,5.15
2022-07-31T20:20:02.848Z,6.32
2022-07-31T20:23:06.102Z,4.85
2022-07-31T20:26:10.149Z,7.47
2022-07-31T20:29:12.441Z,9.68
2022-07-31T20:32:14.546Z,6.15
2022-07-31T20:35:33.104Z,5.95
2022-07-31T20:38:39.046Z,7.60
2022-07-31T20:41:41.153Z,8.57
2022-07-31T20:44:44.576Z,5.97
2022-07-31T20:47:46.676Z,5.53
2022-07-31T20:50:48.918Z,6.00
2022-07-31T20:53:51.859Z,5.03
2022-07-31T20:56:54.000Z,4.47
2022-07-31T20:59:56.078Z,4.78
2022-07-31T21:02:58.153Z,4.28
2022-07-31T21:06:00.267Z,8.48
2022-07-31T21:09:04.509Z,8.20
2022-07-31T21:12:08.685Z,7.75
2022-07-31T21:15:40.939Z,6.63
2022-07-31T21:18:35.003Z,5.78
2022-07-31T21:21:37.483Z,5.10
2022-07-31T21:24:39.867Z,4.00
2022-07-31T21:27:42.179Z,7.38
2022-07-31T21:30:44.493Z,7.50
2022-07-31T21:33:47.119Z,8.93
2022-07-31T21:36:50.235Z,10.73
2022-07-31T21:39:52.622Z,13.25
2022-07-31T21:42:57.248Z,8.52
2022-07-31T21:46:01.832Z,7.82
2022-07-31T21:49:04.488Z,12.75
2022-07-31T21:52:07.882Z,7.30
2022-07-31T21:55:10.295Z,8.23
2022-07-31T21:58:13.051Z,7.22
2022-07-31T22:01:15.505Z,15.35
2022-07-31T22:04:17.788Z,7.97
2022-07-31T22:07:32.273Z,14.65
2022-07-31T22:10:34.482Z,10.13
2022-07-31T22:13:36.616Z,7.68
2022-07-31T22:16:38.789Z,6.95
2022-07-31T22:19:44.389Z,5.20
2022-07-31T22:22:50.074Z,96.95
2022-07-31T22:25:52.273Z,7.40
2022-07-31T22:28:54.488Z,6.88
2022-07-31T22:31:56.819Z,5.65
2022-07-31T22:34:58.950Z,4.15
2022-07-31T22:38:01.126Z,4.13
2022-07-31T22:41:03.456Z,6.30
2022-07-31T22:44:14.457Z,6.10
2022-07-31T22:47:17.315Z,5.80
2022-07-31T22:50:19.501Z,4.75
2022-07-31T22:53:21.598Z,5.70
2022-07-31T22:56:23.679Z,6.10
2022-07-31T22:59:25.846Z,5.68
2022-07-31T23:02:28.136Z,3.35
2022-07-31T23:06:12.219Z,7.00
2022-07-31T23:08:54.706Z,4.78
2022-07-31T23:12:00.478Z,5.57
2022-07-31T23:15:02.635Z,3.25
2022-07-31T23:18:04.786Z,5.53
2022-07-31T23:21:08.506Z,6.70
2022-07-31T23:24:11.882Z,4.60
2022-07-31T23:27:13.972Z,4.38
2022-07-31T23:30:16.061Z,6.13
2022-07-31T23:33:18.120Z,6.72
2022-07-31T23:36:20.367Z,4.38
2022-07-31T23:39:23.038Z,4.35
2022-07-31T23:42:40.230Z,5.22
2022-07-31T23:45:42.312Z,7.10
2022-07-31T23:48:46.222Z,6.28
2022-07-31T23:51:48.316Z,5.50
2022-07-31T23:54:50.397Z,7.57
2022-07-31T23:57:52.501Z,7.40
